Terminal Aerodrome Forecast
Issued by NWS Charleston, WV

Current Version | Previous Version | Graphics & Text | Print | Product List | Glossary Off
Versions: 1 2 3 4 5 6 7 8 9 10 11 12 13 14 15 16 17 18 19 20 21

000
FTUS41 KRLX 101727
TAFCRW
TAF
KCRW 101727Z 1018/1118 26006KT P6SM BKN025
     FM101830 27004KT P6SM FEW025
     FM110200 00000KT P6SM BKN100
     FM111700 16006KT P6SM SCT080=

USA.gov is the U.S. government's official web portal to all federal, state and local government web resources and services.